Time;durP1;ratioP1;P1;durP2;ratioP2;P2;SDS_P1;SDS_P2;PMS_P1;PMS_P2;Temp;Humidity;BMP_temperature;BMP_pressure;BME280_temperature;BME280_humidity;BME280_pressure;Samples;Min_cycle;Max_cycle;Signal;HPM_P1;HPM_P2
2023/04/19 00:00:40;;;;;;;15.37;14.00;;;;;;;;;;4965513;28;20425;-79
2023/04/19 00:03:07;;;;;;;13.50;12.13;;;;;;;;;;4960456;28;20882;-79
2023/04/19 00:05:34;;;;;;;15.70;14.10;;;;;;;;;;4964859;28;20425;-79
2023/04/19 00:08:00;;;;;;;15.43;13.63;;;;;;;;;;4961119;28;21127;-79
2023/04/19 00:10:26;;;;;;;21.00;16.13;;;;;;;;;;4964756;28;20472;-78
2023/04/19 00:12:52;;;;;;;13.97;12.57;;;;;;;;;;4961462;28;20504;-79
2023/04/19 00:15:18;;;;;;;16.17;14.60;;;;;;;;;;4965474;28;20493;-78
2023/04/19 00:17:44;;;;;;;14.50;13.10;;;;;;;;;;4960789;28;20599;-79
2023/04/19 00:20:12;;;;;;;15.43;13.90;;;;;;;;;;4964351;28;20523;-78
2023/04/19 00:22:38;;;;;;;15.23;13.80;;;;;;;;;;4959526;28;20449;-78
2023/04/19 00:25:04;;;;;;;14.87;13.37;;;;;;;;;;4964934;28;20433;-78
2023/04/19 00:27:30;;;;;;;15.87;14.20;;;;;;;;;;4961431;28;20527;-79
2023/04/19 00:29:56;;;;;;;17.20;15.40;;;;;;;;;;4963681;28;20432;-79
2023/04/19 00:32:22;;;;;;;17.27;15.67;;;;;;;;;;4962772;28;20434;-80
2023/04/19 00:34:48;;;;;;;17.83;14.20;;;;;;;;;;4976664;28;20433;-79
2023/04/19 00:37:15;;;;;;;18.40;15.97;;;;;;;;;;4986896;28;20441;-79
2023/04/19 00:39:41;;;;;;;17.17;15.47;;;;;;;;;;4972804;28;20477;-80
2023/04/19 00:42:07;;;;;;;18.60;15.30;;;;;;;;;;4966934;28;20540;-79
2023/04/19 00:44:33;;;;;;;17.47;15.67;;;;;;;;;;4966478;28;20775;-79
2023/04/19 00:46:59;;;;;;;21.23;17.60;;;;;;;;;;4962752;28;20559;-77
2023/04/19 00:49:26;;;;;;;18.10;16.27;;;;;;;;;;4966046;28;20504;-78
2023/04/19 00:51:52;;;;;;;17.37;15.30;;;;;;;;;;4962832;28;20448;-78
2023/04/19 00:54:19;;;;;;;17.30;15.47;;;;;;;;;;4963727;28;20437;-78
2023/04/19 00:56:45;;;;;;;19.80;16.87;;;;;;;;;;4946038;28;20453;-77
2023/04/19 00:59:12;;;;;;;20.37;18.00;;;;;;;;;;4961779;28;20523;-78
2023/04/19 01:01:38;;;;;;;19.70;14.80;;;;;;;;;;4963963;28;20464;-78
2023/04/19 01:04:05;;;;;;;18.40;16.37;;;;;;;;;;4960918;28;20449;-77
2023/04/19 01:06:31;;;;;;;17.90;16.10;;;;;;;;;;4964185;28;20437;-79
2023/04/19 01:08:57;;;;;;;21.27;17.87;;;;;;;;;;4959827;28;20452;-78
2023/04/19 01:11:24;;;;;;;17.93;15.77;;;;;;;;;;4963838;28;20445;-79
2023/04/19 01:13:50;;;;;;;19.90;16.57;;;;;;;;;;4960558;28;20448;-78
2023/04/19 01:16:17;;;;;;;16.80;15.20;;;;;;;;;;4963665;28;20487;-78
2023/04/19 01:18:45;;;;;;;18.50;16.57;;;;;;;;;;4960522;28;20535;-78
2023/04/19 01:21:11;;;;;;;18.33;16.13;;;;;;;;;;4964219;28;20878;-78
2023/04/19 01:23:40;;;;;;;21.20;17.70;;;;;;;;;;4958209;28;20445;-79
2023/04/19 01:26:07;;;;;;;16.77;15.07;;;;;;;;;;4963188;28;20480;-79
2023/04/19 01:28:33;;;;;;;21.10;17.30;;;;;;;;;;4960820;28;20536;-79
2023/04/19 01:30:59;;;;;;;20.47;16.50;;;;;;;;;;4963050;28;20429;-79
2023/04/19 01:33:25;;;;;;;18.90;16.90;;;;;;;;;;4960702;28;20456;-78
2023/04/19 01:35:51;;;;;;;21.70;16.77;;;;;;;;;;4963552;28;20857;-78
2023/04/19 01:38:17;;;;;;;17.73;15.93;;;;;;;;;;4960236;28;20511;-79
2023/04/19 01:40:44;;;;;;;18.70;16.90;;;;;;;;;;4963296;28;20469;-79
2023/04/19 01:43:12;;;;;;;19.30;17.30;;;;;;;;;;4959683;28;20445;-78
2023/04/19 01:45:38;;;;;;;17.23;15.53;;;;;;;;;;4963750;28;20519;-78
2023/04/19 01:48:04;;;;;;;17.37;15.20;;;;;;;;;;4960052;28;20449;-77
2023/04/19 01:50:30;;;;;;;22.77;17.17;;;;;;;;;;4963225;28;21391;-79
2023/04/19 01:52:57;;;;;;;21.93;16.10;;;;;;;;;;4959657;28;20442;-78
2023/04/19 01:55:23;;;;;;;21.93;16.80;;;;;;;;;;4964182;28;20433;-78
2023/04/19 01:57:51;;;;;;;19.27;14.30;;;;;;;;;;4959531;28;20521;-78
2023/04/19 02:00:17;;;;;;;20.03;15.30;;;;;;;;;;4962844;28;20469;-78
2023/04/19 02:02:43;;;;;;;22.50;18.30;;;;;;;;;;4960204;28;20814;-78
2023/04/19 02:05:10;;;;;;;18.27;16.30;;;;;;;;;;4962849;28;20449;-78
2023/04/19 02:07:36;;;;;;;20.30;17.30;;;;;;;;;;4959687;28;20449;-79
2023/04/19 02:10:02;;;;;;;17.73;15.87;;;;;;;;;;4962759;28;20422;-78
2023/04/19 02:12:32;;;;;;;20.90;18.60;;;;;;;;;;4960173;28;20521;-78
2023/04/19 02:14:58;;;;;;;19.67;16.27;;;;;;;;;;4954516;28;20545;-79
2023/04/19 02:17:24;;;;;;;17.43;15.60;;;;;;;;;;4961006;28;20445;-79
2023/04/19 02:19:51;;;;;;;17.20;15.40;;;;;;;;;;4962787;28;20976;-79
2023/04/19 02:22:17;;;;;;;16.37;14.50;;;;;;;;;;4955434;28;20468;-79
2023/04/19 02:24:43;;;;;;;16.50;13.80;;;;;;;;;;4964041;28;20766;-79
2023/04/19 02:27:09;;;;;;;16.90;15.23;;;;;;;;;;4959665;28;20547;-78
2023/04/19 02:29:35;;;;;;;20.53;14.33;;;;;;;;;;4963611;28;20584;-79
2023/04/19 02:32:04;;;;;;;16.47;14.70;;;;;;;;;;4980593;28;20441;-78
2023/04/19 02:34:30;;;;;;;17.33;15.50;;;;;;;;;;4988156;28;20432;-78
2023/04/19 02:36:57;;;;;;;18.43;14.63;;;;;;;;;;4966880;28;20449;-78
2023/04/19 02:39:23;;;;;;;16.23;14.53;;;;;;;;;;4972102;28;20488;-80
2023/04/19 02:41:52;;;;;;;16.70;15.03;;;;;;;;;;4964822;28;20444;-80
2023/04/19 02:44:18;;;;;;;15.43;14.03;;;;;;;;;;4963158;28;20861;-78
2023/04/19 02:46:51;;;;;;;14.40;12.90;;;;;;;;;;4963117;28;20433;-77
2023/04/19 02:49:17;;;;;;;13.83;12.43;;;;;;;;;;4944658;28;20996;-79
2023/04/19 02:51:43;;;;;;;12.77;11.57;;;;;;;;;;4962588;28;20449;-81
2023/04/19 02:54:09;;;;;;;13.87;12.47;;;;;;;;;;4960765;28;20441;-79
2023/04/19 02:56:35;;;;;;;12.53;10.93;;;;;;;;;;4945849;28;20851;-79
2023/04/19 02:59:01;;;;;;;11.60;10.60;;;;;;;;;;4958641;28;20481;-80
2023/04/19 03:01:27;;;;;;;11.83;10.83;;;;;;;;;;4962381;28;20441;-79
2023/04/19 03:03:54;;;;;;;10.87;9.97;;;;;;;;;;4958864;28;20833;-80
2023/04/19 03:06:20;;;;;;;11.00;9.90;;;;;;;;;;4962500;28;20444;-80
2023/04/19 03:08:46;;;;;;;11.00;10.10;;;;;;;;;;4959278;28;20482;-80
2023/04/19 03:11:12;;;;;;;11.27;10.27;;;;;;;;;;4962584;28;20460;-80
2023/04/19 03:13:39;;;;;;;10.80;9.80;;;;;;;;;;4958816;28;20810;-79
2023/04/19 03:16:05;;;;;;;10.43;9.53;;;;;;;;;;4961341;28;20465;-80
2023/04/19 03:18:31;;;;;;;11.17;9.53;;;;;;;;;;4959033;28;20441;-79
2023/04/19 03:20:57;;;;;;;10.20;9.40;;;;;;;;;;4962277;28;20525;-79
2023/04/19 03:23:24;;;;;;;13.60;9.47;;;;;;;;;;4956544;28;20448;-78
2023/04/19 03:25:50;;;;;;;9.13;8.43;;;;;;;;;;4961791;28;20520;-80
2023/04/19 03:28:16;;;;;;;9.80;8.30;;;;;;;;;;4952577;28;20437;-80
2023/04/19 03:30:42;;;;;;;8.20;7.50;;;;;;;;;;4962096;28;20799;-79
2023/04/19 03:33:08;;;;;;;9.07;8.37;;;;;;;;;;4958222;28;21035;-81
2023/04/19 03:35:34;;;;;;;8.43;7.83;;;;;;;;;;4962772;28;20472;-79
2023/04/19 03:38:00;;;;;;;9.57;8.53;;;;;;;;;;4957617;28;20463;-80
2023/04/19 03:40:26;;;;;;;15.00;8.27;;;;;;;;;;4961932;28;20480;-79
2023/04/19 03:42:52;;;;;;;9.00;6.93;;;;;;;;;;4958699;28;20484;-80
2023/04/19 03:45:18;;;;;;;8.50;7.77;;;;;;;;;;4964722;28;20477;-80
2023/04/19 03:47:44;;;;;;;8.60;8.00;;;;;;;;;;4961866;28;20520;-79
2023/04/19 03:50:10;;;;;;;6.93;6.53;;;;;;;;;;4965582;28;20437;-79
2023/04/19 03:52:37;;;;;;;8.57;5.93;;;;;;;;;;4962713;28;20445;-80
2023/04/19 03:55:03;;;;;;;7.00;6.50;;;;;;;;;;4965674;28;20440;-78
2023/04/19 03:57:29;;;;;;;6.03;5.53;;;;;;;;;;4963099;28;20540;-79
2023/04/19 03:59:55;;;;;;;7.43;6.73;;;;;;;;;;4965790;28;20465;-79
2023/04/19 04:02:21;;;;;;;7.53;6.93;;;;;;;;;;4962176;28;20970;-78
2023/04/19 04:04:52;;;;;;;6.47;6.10;;;;;;;;;;4965289;28;20417;-79
2023/04/19 04:07:18;;;;;;;6.70;6.30;;;;;;;;;;4962273;28;20454;-78
2023/04/19 04:09:46;;;;;;;7.00;6.60;;;;;;;;;;4965911;28;20437;-78
2023/04/19 04:12:12;;;;;;;5.50;5.20;;;;;;;;;;4961643;28;20519;-78
2023/04/19 04:14:38;;;;;;;6.50;6.00;;;;;;;;;;4964374;28;20425;-79
2023/04/19 04:17:04;;;;;;;5.50;5.30;;;;;;;;;;4960120;28;20524;-78
2023/04/19 04:19:30;;;;;;;5.80;5.47;;;;;;;;;;4964227;28;20490;-78
2023/04/19 04:21:56;;;;;;;5.90;5.60;;;;;;;;;;4960216;28;20472;-78
2023/04/19 04:24:22;;;;;;;9.90;6.17;;;;;;;;;;4965013;28;21035;-78
2023/04/19 04:26:51;;;;;;;6.03;5.20;;;;;;;;;;4962585;28;20492;-79
2023/04/19 04:29:20;;;;;;;5.07;4.83;;;;;;;;;;4962787;28;20445;-80
2023/04/19 04:31:46;;;;;;;5.87;5.47;;;;;;;;;;4955796;28;20511;-79
2023/04/19 04:34:13;;;;;;;7.30;6.60;;;;;;;;;;4964415;28;20567;-79
2023/04/19 04:36:40;;;;;;;5.50;5.20;;;;;;;;;;4968590;28;20603;-79
2023/04/19 04:39:10;;;;;;;6.37;5.73;;;;;;;;;;4989268;28;20832;-78
2023/04/19 04:41:40;;;;;;;7.47;6.73;;;;;;;;;;4971544;28;20453;-78
2023/04/19 04:44:07;;;;;;;5.80;5.50;;;;;;;;;;4967850;28;20528;-77
2023/04/19 04:46:33;;;;;;;5.97;5.47;;;;;;;;;;4963264;28;21152;-78
2023/04/19 04:48:59;;;;;;;6.37;5.97;;;;;;;;;;4964364;28;20441;-79
2023/04/19 04:51:26;;;;;;;6.17;5.67;;;;;;;;;;4961462;28;20437;-78
2023/04/19 04:53:52;;;;;;;5.40;5.13;;;;;;;;;;4965082;28;20448;-79
2023/04/19 04:56:18;;;;;;;5.40;5.00;;;;;;;;;;4961702;28;20448;-79
2023/04/19 04:58:44;;;;;;;5.20;4.87;;;;;;;;;;4964981;28;21045;-79
2023/04/19 05:01:10;;;;;;;7.07;6.50;;;;;;;;;;4959493;28;21219;-79
2023/04/19 05:03:36;;;;;;;5.57;5.07;;;;;;;;;;4964955;28;20440;-79
2023/04/19 05:06:02;;;;;;;4.97;4.67;;;;;;;;;;4959023;28;20445;-78
2023/04/19 05:08:28;;;;;;;6.03;5.43;;;;;;;;;;4963442;28;20425;-79
2023/04/19 05:10:54;;;;;;;6.40;6.00;;;;;;;;;;4957440;28;20539;-78
2023/04/19 05:13:21;;;;;;;5.43;5.10;;;;;;;;;;4964021;28;20980;-78
2023/04/19 05:15:47;;;;;;;5.50;5.20;;;;;;;;;;4960018;28;20480;-81
2023/04/19 05:18:13;;;;;;;7.40;6.70;;;;;;;;;;4964640;28;20421;-78
2023/04/19 05:20:39;;;;;;;5.80;5.40;;;;;;;;;;4960619;28;20480;-78
2023/04/19 05:23:05;;;;;;;5.80;5.23;;;;;;;;;;4935818;28;21109;-78
2023/04/19 05:25:31;;;;;;;12.10;7.20;;;;;;;;;;4963787;28;20429;-79
2023/04/19 05:27:57;;;;;;;6.07;5.60;;;;;;;;;;4961159;28;20511;-79
2023/04/19 05:30:23;;;;;;;6.33;6.00;;;;;;;;;;4964809;28;20452;-79
2023/04/19 05:32:51;;;;;;;7.20;6.50;;;;;;;;;;4958056;28;21023;-80
2023/04/19 05:35:17;;;;;;;6.20;5.80;;;;;;;;;;4963604;28;20437;-81
2023/04/19 05:37:43;;;;;;;6.03;5.63;;;;;;;;;;4959421;28;21329;-79
2023/04/19 05:40:09;;;;;;;5.93;5.40;;;;;;;;;;4963450;28;20464;-80
2023/04/19 05:42:35;;;;;;;6.40;5.90;;;;;;;;;;4960002;28;20613;-80
2023/04/19 05:45:02;;;;;;;7.23;6.53;;;;;;;;;;4963321;28;21149;-79
2023/04/19 05:47:28;;;;;;;6.90;6.40;;;;;;;;;;4960713;28;20468;-79
2023/04/19 05:49:54;;;;;;;6.27;5.60;;;;;;;;;;4962594;28;20446;-79
2023/04/19 05:52:20;;;;;;;13.73;6.30;;;;;;;;;;4955143;28;20455;-79
2023/04/19 05:54:46;;;;;;;7.03;6.43;;;;;;;;;;4952515;28;20552;-81
2023/04/19 05:57:15;;;;;;;7.90;7.30;;;;;;;;;;4959399;28;20540;-80
2023/04/19 05:59:42;;;;;;;7.33;6.00;;;;;;;;;;4965552;28;20484;-78
2023/04/19 06:02:08;;;;;;;7.83;7.23;;;;;;;;;;4960645;28;21019;-81
2023/04/19 06:04:34;;;;;;;7.37;6.63;;;;;;;;;;4964466;28;20470;-80
2023/04/19 06:07:00;;;;;;;6.90;6.40;;;;;;;;;;4961423;28;20960;-82
2023/04/19 06:09:26;;;;;;;6.90;6.40;;;;;;;;;;4961742;28;20456;-79
2023/04/19 06:11:53;;;;;;;7.80;7.20;;;;;;;;;;4940618;28;20464;-79
2023/04/19 06:14:19;;;;;;;7.37;6.77;;;;;;;;;;4958167;28;20449;-79
2023/04/19 06:16:46;;;;;;;8.60;7.10;;;;;;;;;;4953560;28;20504;-78
2023/04/19 06:19:12;;;;;;;7.13;6.70;;;;;;;;;;4955769;28;20477;-80
2023/04/19 06:21:38;;;;;;;7.23;6.83;;;;;;;;;;4953166;28;20457;-77
2023/04/19 06:24:05;;;;;;;7.77;7.17;;;;;;;;;;4956895;28;20445;-79
2023/04/19 06:26:31;;;;;;;6.53;6.03;;;;;;;;;;4939163;28;20920;-79
2023/04/19 06:28:58;;;;;;;7.27;6.87;;;;;;;;;;4959887;28;20875;-79
2023/04/19 06:31:24;;;;;;;6.70;6.20;;;;;;;;;;4951149;28;20732;-81
2023/04/19 06:33:50;;;;;;;7.20;6.60;;;;;;;;;;4957241;28;20445;-76
2023/04/19 06:36:16;;;;;;;6.60;6.10;;;;;;;;;;4941404;28;20456;-80
2023/04/19 06:38:43;;;;;;;6.70;6.30;;;;;;;;;;4957988;28;20456;-79
2023/04/19 06:41:09;;;;;;;8.40;6.07;;;;;;;;;;4969654;28;20524;-77
2023/04/19 06:43:35;;;;;;;6.77;6.13;;;;;;;;;;4964620;28;20434;-79
2023/04/19 06:46:05;;;;;;;6.17;5.80;;;;;;;;;;4943260;28;20464;-78
2023/04/19 06:48:31;;;;;;;7.50;6.80;;;;;;;;;;4955888;28;20457;-77
2023/04/19 06:50:57;;;;;;;8.00;7.30;;;;;;;;;;4950217;28;20708;-79
2023/04/19 06:53:23;;;;;;;5.50;5.10;;;;;;;;;;4956789;28;20417;-80
2023/04/19 06:55:53;;;;;;;6.83;6.33;;;;;;;;;;4951976;28;20453;-81
2023/04/19 06:58:21;;;;;;;8.40;6.10;;;;;;;;;;4956405;28;20420;-79
2023/04/19 07:00:48;;;;;;;5.93;5.53;;;;;;;;;;4958066;28;20464;-80
2023/04/19 07:03:14;;;;;;;6.00;5.50;;;;;;;;;;4964577;28;20923;-79
2023/04/19 07:05:40;;;;;;;5.30;5.00;;;;;;;;;;4939303;28;20471;-79
2023/04/19 07:08:06;;;;;;;5.47;5.20;;;;;;;;;;4953437;28;20552;-80
2023/04/19 07:10:32;;;;;;;5.60;5.20;;;;;;;;;;4953043;28;20952;-80
2023/04/19 07:12:58;;;;;;;5.67;5.37;;;;;;;;;;4962736;28;20433;-78
2023/04/19 07:15:24;;;;;;;5.80;5.40;;;;;;;;;;4959638;28;20461;-78
2023/04/19 07:17:50;;;;;;;6.60;5.93;;;;;;;;;;4961498;28;20789;-79
2023/04/19 07:20:16;;;;;;;6.40;5.60;;;;;;;;;;4960786;28;20527;-79
2023/04/19 07:22:42;;;;;;;6.00;5.70;;;;;;;;;;4959233;28;20456;-79
2023/04/19 07:25:09;;;;;;;5.57;5.17;;;;;;;;;;4951840;28;21003;-78
2023/04/19 07:27:35;;;;;;;6.37;5.97;;;;;;;;;;4961910;28;20445;-80
2023/04/19 07:30:01;;;;;;;5.90;5.40;;;;;;;;;;4956333;28;20952;-79
2023/04/19 07:32:27;;;;;;;6.47;5.97;;;;;;;;;;4959519;28;20446;-80
2023/04/19 07:34:53;;;;;;;5.30;5.00;;;;;;;;;;4962372;28;21424;-80
2023/04/19 07:37:19;;;;;;;6.37;5.80;;;;;;;;;;4956246;28;20472;-81
2023/04/19 07:39:45;;;;;;;6.53;5.00;;;;;;;;;;4955104;28;20675;-80
2023/04/19 07:42:11;;;;;;;6.53;6.13;;;;;;;;;;4967003;28;20441;-80
2023/04/19 07:44:37;;;;;;;6.17;5.77;;;;;;;;;;4966548;28;20444;-79
2023/04/19 07:47:07;;;;;;;7.47;5.33;;;;;;;;;;4958894;28;20801;-80
2023/04/19 07:49:36;;;;;;;6.37;5.80;;;;;;;;;;4966364;28;20456;-80
2023/04/19 07:52:02;;;;;;;6.00;5.50;;;;;;;;;;4968801;28;20437;-78
2023/04/19 07:54:30;;;;;;;7.50;4.70;;;;;;;;;;4968462;28;20464;-80
2023/04/19 07:56:57;;;;;;;5.70;5.33;;;;;;;;;;4963735;28;20445;-80
2023/04/19 07:59:23;;;;;;;5.10;4.80;;;;;;;;;;4969665;28;20473;-78
2023/04/19 08:01:49;;;;;;;4.97;4.77;;;;;;;;;;4970149;28;20481;-79
2023/04/19 08:04:18;;;;;;;6.10;5.67;;;;;;;;;;4968483;28;20445;-80
2023/04/19 08:06:45;;;;;;;5.67;5.27;;;;;;;;;;4963728;28;20536;-78
2023/04/19 08:09:11;;;;;;;5.63;5.23;;;;;;;;;;4948575;28;20449;-78
2023/04/19 08:11:37;;;;;;;6.17;5.77;;;;;;;;;;4964342;28;20449;-78
2023/04/19 08:14:03;;;;;;;4.70;4.50;;;;;;;;;;4964913;28;20544;-78
2023/04/19 08:16:29;;;;;;;4.93;4.60;;;;;;;;;;4945093;28;20821;-77
2023/04/19 08:18:55;;;;;;;5.13;4.83;;;;;;;;;;4940948;28;20528;-77
2023/04/19 08:21:21;;;;;;;5.60;5.10;;;;;;;;;;4932851;28;20774;-80
2023/04/19 08:23:47;;;;;;;4.70;4.40;;;;;;;;;;4936902;28;20437;-78
2023/04/19 08:26:13;;;;;;;5.23;4.90;;;;;;;;;;4944788;29;20446;-80
2023/04/19 08:28:39;;;;;;;4.70;4.43;;;;;;;;;;4947701;29;20946;-81
2023/04/19 08:31:09;;;;;;;4.60;4.30;;;;;;;;;;4941732;28;20966;-83
2023/04/19 08:33:36;;;;;;;4.83;4.33;;;;;;;;;;4947339;29;20513;-81
2023/04/19 08:36:02;;;;;;;4.70;4.50;;;;;;;;;;4943818;29;21058;-78
2023/04/19 08:38:28;;;;;;;4.43;4.00;;;;;;;;;;4945761;28;20570;-81
2023/04/19 08:40:54;;;;;;;4.47;4.27;;;;;;;;;;4946728;28;20976;-81
2023/04/19 08:43:21;;;;;;;5.40;5.10;;;;;;;;;;4946049;29;20418;-80
2023/04/19 08:45:47;;;;;;;4.07;3.97;;;;;;;;;;4951129;29;20439;-80
2023/04/19 08:48:14;;;;;;;4.37;4.17;;;;;;;;;;4960667;29;20419;-81
2023/04/19 08:50:41;;;;;;;5.03;4.70;;;;;;;;;;4943814;29;20438;-83
2023/04/19 08:53:08;;;;;;;4.97;4.57;;;;;;;;;;4941326;29;20921;-80
2023/04/19 08:55:35;;;;;;;4.97;4.40;;;;;;;;;;4934853;29;20821;-78
2023/04/19 08:58:02;;;;;;;5.53;5.20;;;;;;;;;;4936285;29;20961;-80
2023/04/19 09:00:28;;;;;;;4.63;4.43;;;;;;;;;;4937566;29;20478;-78
2023/04/19 09:02:55;;;;;;;5.10;4.83;;;;;;;;;;4940862;28;20978;-80
2023/04/19 09:05:21;;;;;;;4.80;4.47;;;;;;;;;;4933131;29;20920;-78
2023/04/19 09:07:47;;;;;;;4.87;4.63;;;;;;;;;;4944069;29;20912;-77
2023/04/19 09:10:17;;;;;;;4.17;3.97;;;;;;;;;;4948804;28;20438;-78
2023/04/19 09:12:59;;;;;;;5.27;4.83;;;;;;;;;;4938946;29;20446;-79
2023/04/19 09:15:35;;;;;;;4.40;4.03;;;;;;;;;;4955716;28;20476;-78
2023/04/19 09:18:05;;;;;;;4.97;4.57;;;;;;;;;;4955527;28;20556;-78
2023/04/19 09:20:42;;;;;;;3.70;3.30;;;;;;;;;;4958552;28;20642;-79
2023/04/19 09:23:11;;;;;;;3.83;3.73;;;;;;;;;;4961461;28;20437;-79
2023/04/19 09:25:37;;;;;;;3.60;3.30;;;;;;;;;;4957923;28;20438;-78
2023/04/19 09:28:10;;;;;;;5.77;3.37;;;;;;;;;;4962439;28;20445;-79
2023/04/19 09:30:37;;;;;;;3.87;2.93;;;;;;;;;;4956521;28;21057;-79
2023/04/19 09:33:03;;;;;;;3.23;3.10;;;;;;;;;;4963357;28;20523;-77
2023/04/19 09:35:42;;;;;;;3.23;3.13;;;;;;;;;;4950249;28;20429;-80
2023/04/19 09:38:09;;;;;;;3.97;3.67;;;;;;;;;;4965652;28;20842;-81
2023/04/19 09:40:35;;;;;;;3.43;3.37;;;;;;;;;;4960228;28;20556;-80
2023/04/19 09:43:02;;;;;;;3.20;3.10;;;;;;;;;;4964298;28;20734;-81
2023/04/19 09:45:39;;;;;;;2.90;2.80;;;;;;;;;;4962750;28;20437;-81
2023/04/19 09:48:08;;;;;;;3.33;3.03;;;;;;;;;;4966230;28;20417;-82
2023/04/19 09:50:35;;;;;;;3.03;2.93;;;;;;;;;;4963283;28;20952;-81
2023/04/19 09:53:02;;;;;;;3.07;2.80;;;;;;;;;;4959601;28;20931;-83
2023/04/19 09:55:28;;;;;;;2.20;2.20;;;;;;;;;;4960252;28;20438;-78
2023/04/19 09:57:54;;;;;;;2.43;2.30;;;;;;;;;;4945368;28;20523;-80
2023/04/19 10:00:22;;;;;;;2.40;2.40;;;;;;;;;;4946315;28;21034;-83
2023/04/19 10:02:54;;;;;;;2.60;2.40;;;;;;;;;;4951883;28;20414;-81
2023/04/19 10:05:24;;;;;;;2.77;2.63;;;;;;;;;;4959809;28;20709;-80
2023/04/19 10:07:51;;;;;;;3.07;2.30;;;;;;;;;;4956932;28;20805;-79
2023/04/19 10:10:17;;;;;;;2.97;2.97;;;;;;;;;;4962458;28;20452;-79
2023/04/19 10:12:47;;;;;;;3.53;2.57;;;;;;;;;;4962095;28;20550;-78
2023/04/19 10:15:13;;;;;;;3.60;2.77;;;;;;;;;;4936048;28;20469;-78
2023/04/19 10:17:40;;;;;;;2.30;2.20;;;;;;;;;;4938266;28;20440;-79
2023/04/19 10:20:16;;;;;;;7.93;2.63;;;;;;;;;;4953553;28;20764;-79
2023/04/19 10:22:42;;;;;;;3.50;3.40;;;;;;;;;;4959055;28;20425;-78
2023/04/19 10:25:11;;;;;;;3.47;3.37;;;;;;;;;;4955535;28;20509;-80
2023/04/19 10:27:38;;;;;;;2.57;2.47;;;;;;;;;;4962614;28;20442;-81
2023/04/19 10:30:09;;;;;;;3.50;3.20;;;;;;;;;;4958740;28;20402;-80
2023/04/19 10:32:42;;;;;;;3.03;2.83;;;;;;;;;;4963884;28;20224;-80
2023/04/19 10:35:08;;;;;;;3.60;3.50;;;;;;;;;;4937485;28;20449;-78
2023/04/19 10:37:34;;;;;;;3.50;3.37;;;;;;;;;;4955372;28;21118;-80
2023/04/19 10:40:00;;;;;;;3.27;3.23;;;;;;;;;;4954784;28;20483;-79
2023/04/19 10:42:53;;;;;;;5.47;4.40;;;;;;;;;;4963188;28;20484;-79
2023/04/19 10:45:32;;;;;;;3.80;3.70;;;;;;;;;;4951175;28;20422;-78
2023/04/19 10:47:58;;;;;;;3.60;3.50;;;;;;;;;;4960025;28;20452;-78
2023/04/19 10:50:24;;;;;;;3.00;2.90;;;;;;;;;;4953612;28;20489;-79
2023/04/19 10:52:53;;;;;;;3.70;3.60;;;;;;;;;;4964564;28;20436;-77
2023/04/19 10:55:19;;;;;;;3.70;3.30;;;;;;;;;;4985199;28;20434;-79
2023/04/19 10:58:02;;;;;;;3.70;3.60;;;;;;;;;;4979952;28;20467;-81
2023/04/19 11:00:31;;;;;;;4.17;3.73;;;;;;;;;;4970013;28;20519;-80
2023/04/19 11:02:57;;;;;;;3.80;3.60;;;;;;;;;;4956217;28;20467;-79
2023/04/19 11:05:23;;;;;;;3.70;3.47;;;;;;;;;;4963966;28;20540;-79
2023/04/19 11:07:49;;;;;;;3.20;3.10;;;;;;;;;;4969300;28;20438;-79
2023/04/19 11:10:27;;;;;;;3.17;3.07;;;;;;;;;;4965457;28;20200;-79
2023/04/19 11:12:53;;;;;;;3.53;3.37;;;;;;;;;;4968452;28;20507;-79
2023/04/19 11:15:24;;;;;;;3.53;3.37;;;;;;;;;;4965002;28;20519;-78
2023/04/19 11:17:59;;;;;;;3.40;3.30;;;;;;;;;;4967284;28;20960;-80
2023/04/19 11:20:28;;;;;;;4.80;3.70;;;;;;;;;;4956240;28;20459;-78
2023/04/19 11:22:59;;;;;;;4.00;3.80;;;;;;;;;;4962417;28;20436;-77
2023/04/19 11:25:48;;;;;;;3.67;3.53;;;;;;;;;;4956346;28;20976;-76
2023/04/19 11:28:16;;;;;;;4.80;4.03;;;;;;;;;;4958727;28;20438;-76
2023/04/19 11:30:42;;;;;;;5.90;5.17;;;;;;;;;;4936613;28;20612;-78
2023/04/19 11:33:11;;;;;;;4.50;4.17;;;;;;;;;;4963532;28;20500;-80
2023/04/19 11:35:40;;;;;;;7.80;3.63;;;;;;;;;;4962874;28;20480;-80
2023/04/19 11:38:06;;;;;;;3.80;3.60;;;;;;;;;;4961118;28;20488;-80
2023/04/19 11:40:33;;;;;;;4.10;4.00;;;;;;;;;;4945731;28;20512;-79
2023/04/19 11:43:00;;;;;;;3.70;3.60;;;;;;;;;;4962022;28;20492;-80
2023/04/19 11:45:30;;;;;;;8.67;8.43;;;;;;;;;;4969466;28;20433;-80
2023/04/19 11:47:56;;;;;;;4.40;4.20;;;;;;;;;;4965971;28;20400;-81
2023/04/19 11:50:42;;;;;;;4.80;4.53;;;;;;;;;;4947349;28;20214;-84
2023/04/19 11:53:14;;;;;;;4.28;4.07;;;;;;;;;;4967494;28;20427;-81
2023/04/19 11:55:51;;;;;;;3.73;3.63;;;;;;;;;;4969630;28;20708;-83
2023/04/19 11:58:35;;;;;;;3.93;3.83;;;;;;;;;;4965624;28;20445;-82
2023/04/19 12:01:05;;;;;;;10.47;5.20;;;;;;;;;;4968923;28;20453;-80
2023/04/19 12:03:31;;;;;;;4.10;3.90;;;;;;;;;;4966966;28;20960;-81
2023/04/19 12:06:09;;;;;;;3.73;3.43;;;;;;;;;;4954894;28;20540;-83
2023/04/19 12:08:36;;;;;;;4.23;4.10;;;;;;;;;;4973446;28;20436;-82
2023/04/19 12:11:02;;;;;;;5.70;4.13;;;;;;;;;;4977466;28;20460;-80
2023/04/19 12:13:31;;;;;;;4.30;4.00;;;;;;;;;;4970786;28;20461;-81
2023/04/19 12:15:58;;;;;;;4.63;4.53;;;;;;;;;;4960858;28;20473;-79
2023/04/19 12:18:24;;;;;;;4.80;4.53;;;;;;;;;;4966338;28;20509;-81
2023/04/19 12:20:51;;;;;;;4.93;4.73;;;;;;;;;;4962285;28;20460;-80
2023/04/19 12:23:18;;;;;;;4.77;4.40;;;;;;;;;;4956935;28;20445;-80
2023/04/19 12:25:45;;;;;;;4.67;4.47;;;;;;;;;;4949960;28;20437;-82
2023/04/19 12:28:11;;;;;;;5.00;4.70;;;;;;;;;;4959632;28;20827;-80
2023/04/19 12:30:38;;;;;;;5.20;5.00;;;;;;;;;;4955382;28;20474;-81
2023/04/19 12:33:06;;;;;;;4.63;4.43;;;;;;;;;;4966278;28;20479;-80
2023/04/19 12:35:33;;;;;;;6.10;5.63;;;;;;;;;;4966570;28;20457;-78
2023/04/19 12:38:00;;;;;;;5.03;4.83;;;;;;;;;;4962035;28;21115;-79
2023/04/19 12:40:26;;;;;;;6.83;5.13;;;;;;;;;;4958888;28;20517;-82
2023/04/19 12:42:53;;;;;;;8.77;5.17;;;;;;;;;;4961252;28;20456;-81
2023/04/19 12:45:20;;;;;;;5.30;4.90;;;;;;;;;;4945273;28;20430;-78
2023/04/19 12:47:46;;;;;;;5.53;5.23;;;;;;;;;;4963472;28;20491;-80
2023/04/19 12:50:13;;;;;;;5.87;5.57;;;;;;;;;;4967791;28;20468;-80
2023/04/19 12:52:40;;;;;;;5.40;5.00;;;;;;;;;;4961890;28;20484;-80
2023/04/19 12:55:06;;;;;;;5.30;5.10;;;;;;;;;;4961683;28;20436;-79
2023/04/19 12:57:32;;;;;;;5.80;4.90;;;;;;;;;;4965435;28;20441;-81
2023/04/19 12:59:58;;;;;;;5.53;5.10;;;;;;;;;;4980876;28;20422;-78
2023/04/19 13:02:24;;;;;;;7.17;5.20;;;;;;;;;;4986359;28;20449;-81
2023/04/19 13:04:51;;;;;;;5.73;5.33;;;;;;;;;;4977273;28;20481;-81
2023/04/19 13:07:17;;;;;;;5.73;5.40;;;;;;;;;;4972554;28;21164;-81
2023/04/19 13:09:43;;;;;;;4.47;4.37;;;;;;;;;;4960025;28;20473;-82
2023/04/19 13:12:09;;;;;;;6.17;5.77;;;;;;;;;;4962840;28;20446;-81
2023/04/19 13:14:35;;;;;;;5.17;4.87;;;;;;;;;;4945835;28;20964;-80
2023/04/19 13:17:01;;;;;;;5.80;5.47;;;;;;;;;;4966798;28;20997;-81
2023/04/19 13:19:27;;;;;;;6.10;5.23;;;;;;;;;;4962139;28;20461;-80
2023/04/19 13:21:53;;;;;;;5.27;4.97;;;;;;;;;;4962993;28;20828;-81
2023/04/19 13:24:19;;;;;;;14.67;11.40;;;;;;;;;;4939367;29;21004;-82
2023/04/19 13:26:45;;;;;;;5.00;4.80;;;;;;;;;;4967485;28;20449;-80
2023/04/19 13:29:11;;;;;;;5.10;4.70;;;;;;;;;;4960929;28;20476;-79
2023/04/19 13:31:37;;;;;;;5.47;5.17;;;;;;;;;;4965530;28;20516;-80
2023/04/19 13:34:09;;;;;;;5.10;4.90;;;;;;;;;;4964157;28;20456;-78
2023/04/19 13:36:35;;;;;;;4.90;4.70;;;;;;;;;;4969366;28;20785;-79
2023/04/19 13:39:01;;;;;;;4.53;4.43;;;;;;;;;;4963677;28;20536;-81
2023/04/19 13:41:27;;;;;;;5.60;5.40;;;;;;;;;;4942500;28;20454;-78
2023/04/19 13:43:53;;;;;;;5.67;5.03;;;;;;;;;;4947806;28;20472;-79
2023/04/19 13:46:19;;;;;;;5.00;4.83;;;;;;;;;;4954717;28;20441;-79
2023/04/19 13:48:45;;;;;;;5.07;4.87;;;;;;;;;;4979588;28;20543;-81
2023/04/19 13:51:11;;;;;;;5.87;5.30;;;;;;;;;;4989005;28;20516;-82
2023/04/19 13:53:38;;;;;;;6.03;5.63;;;;;;;;;;4985475;28;20549;-79
2023/04/19 13:56:08;;;;;;;6.10;4.83;;;;;;;;;;4984457;28;20480;-82
2023/04/19 13:58:37;;;;;;;4.60;4.40;;;;;;;;;;4984372;28;20496;-83
2023/04/19 14:01:03;;;;;;;5.43;5.23;;;;;;;;;;4960760;28;20445;-84
2023/04/19 14:03:29;;;;;;;4.77;4.50;;;;;;;;;;4980930;28;20457;-83
2023/04/19 14:05:55;;;;;;;5.20;4.90;;;;;;;;;;4981573;28;20437;-81
2023/04/19 14:08:21;;;;;;;4.23;4.10;;;;;;;;;;4978672;28;20455;-80
2023/04/19 14:10:49;;;;;;;5.07;4.87;;;;;;;;;;4964804;28;20539;-76
2023/04/19 14:13:15;;;;;;;4.70;4.50;;;;;;;;;;4967032;28;20425;-80
2023/04/19 14:15:41;;;;;;;5.10;4.80;;;;;;;;;;4962332;28;20474;-80
2023/04/19 14:18:07;;;;;;;3.93;3.83;;;;;;;;;;4967038;28;20925;-78
2023/04/19 14:20:34;;;;;;;4.80;4.40;;;;;;;;;;4954596;28;20940;-80
2023/04/19 14:23:00;;;;;;;3.37;3.27;;;;;;;;;;4968684;28;20414;-82
2023/04/19 14:25:26;;;;;;;4.40;4.10;;;;;;;;;;4946746;28;20528;-81
2023/04/19 14:27:52;;;;;;;4.43;4.20;;;;;;;;;;4951288;28;20426;-80
2023/04/19 14:30:19;;;;;;;3.70;3.40;;;;;;;;;;4948160;28;20477;-79
2023/04/19 14:32:45;;;;;;;3.40;3.30;;;;;;;;;;4970360;28;20718;-79
2023/04/19 14:35:11;;;;;;;5.60;3.70;;;;;;;;;;4964541;28;20464;-78